Current Weather

Martin State

Baltimore, Maryland (KMTN)

Report from: Friday, June 21, 2024 7:53 PM EDT
Current time: Friday, June 21, 2024 8:57 PM EDT

Nearby weather – Weather history – Daily summaries
Weather forecast

Temperature29.0°C (84.2°F)
Heat index31.6°C (88.8°F)
Dew point21.0°C (69.8°F)
Winds 10 kts (5.1 m/s, 11.5 mph) South-Southeast (160°)
Wind gusts 17 kts (8.7 m/s, 19.6 mph)
Visibility10 mi. (16.1 km)
Clouds Sky clear
Altimeter30.10 in.Hg (1019 mB)
Relative humidity62 %
Density altitude1,741 ft. (531 m)
Flight conditions Visual Meteorological Conditions
Raw dataKMTN 212353Z 16010G17KT 10SM CLR 29/21 A3010
An error has occurred. This application may no longer respond until reloaded. Reload 🗙